Armada Pride — 9HA4102 — position and weather

sailwx.info

Track history (hours):
 
Tides and Currents Weather Stations Pressure Air Temp Water Temp Dewpoint Dewpoint Depression Visibility Wind Speed Wind Dir Waves Ship Positions

Armada Pride

Last reported at 2018-Jun-18 14:16 UTC. Time now 2018-Jun-18 19:05 UTC.
Position N 37°27' E 025°56'.

Length 140 m; draft 4.1 m.

Type: Ship (hazmat cat A). MMSI: 249092000.

Date/timePositionNaut miles runAvg speedWind from/ knotsBaromVisibWave heightAir tempDewpointWater temp
2018-Jun-18 14:16N 37°27' E 025°56'2 9.1
2018-Jun-18 14:00N 37°29' E 025°55'5 9.0
2018-Jun-18 13:29N 37°34' E 025°53'310 6.5
2018-Jun-16 13:50N 41°43' E 029°53'3 8.7
2018-Jun-16 13:30N 41°44' E 029°57'8 8.7
2018-Jun-16 12:36N 41°49' E 030°05'1 8.8
2018-Jun-16 12:30N 41°49' E 030°06'4 8.8
2018-Jun-16 12:00N 41°52' E 030°11'5 8.9
2018-Jun-16 11:27N 41°54' E 030°17'89 9.0
2018-Jun-16 01:34N 42°43' E 031°57'0 8.7
2018-Jun-16 01:30N 42°43' E 031°58'7 8.6
2018-Jun-16 00:43N 42°47' E 032°06'3 8.8
2018-Jun-16 00:20N 42°49' E 032°10'3 8.7
2018-Jun-16 00:00N 42°50' E 032°13'4 8.7
2018-Jun-15 23:30N 42°53' E 032°18'122 8.7
2018-Jun-15 09:30N 43°59' E 034°39'7 8.6
2018-Jun-15 08:40N 44°03' E 034°47'68 9.1
2018-Jun-15 01:11N 44°40' E 036°07'2 9.4
2018-Jun-15 00:59N 44°41' E 036°09'22 1.6
2018-Jun-14 11:02N 44°58' E 036°30'0 8.9
2018-Jun-14 11:00N 44°58' E 036°30'4 8.6
2018-Jun-14 10:30N 45°03' E 036°30'4 8.8
2018-Jun-14 10:00N 45°07' E 036°29'4 8.4
2018-Jun-14 09:30N 45°11' E 036°28'4 6.9
2018-Jun-14 08:58N 45°15' E 036°28'3 5.6
2018-Jun-14 08:30N 45°17' E 036°29'4 7.9
2018-Jun-14 07:59N 45°20' E 036°34'4 8.9
2018-Jun-14 07:30N 45°21' E 036°39'4 8.1
2018-Jun-14 07:00N 45°25' E 036°41'2 4.5
2018-Jun-14 06:30N 45°27' E 036°40'2 2.9
2018-Jun-14 05:55N 45°29' E 036°38'0 0.0
2018-Jun-14 05:30N 45°29' E 036°38'0 0.0
2018-Jun-14 04:58N 45°29' E 036°38'0 0.0
2018-Jun-14 04:29N 45°29' E 036°38'0 0.0
2018-Jun-14 03:56N 45°29' E 036°38'0 0.0
2018-Jun-14 03:28N 45°29' E 036°38'0 0.0
2018-Jun-14 02:53N 45°29' E 036°38'0 0.3
2018-Jun-14 02:30N 45°29' E 036°38'  
2018-Jun-09 22:29N 45°28' E 036°42'4 8.9
2018-Jun-09 22:00N 45°24' E 036°41'4 8.0
2018-Jun-09 21:30N 45°21' E 036°38'5 9.6
2018-Jun-09 21:00N 45°19' E 036°31'4 7.5
2018-Jun-09 20:30N 45°16' E 036°28'3 6.5
2018-Jun-09 19:58N 45°12' E 036°30'1 0.2
2018-Jun-09 16:40N 45°12' E 036°30'1 3.9
2018-Jun-09 16:26N 45°11' E 036°30'5 8.8
2018-Jun-09 15:53N 45°06' E 036°30'  
Track history (hours):
 
Tides and Currents Weather Stations Pressure Air Temp Water Temp Dewpoint Dewpoint Depression Visibility Wind Speed Wind Dir Waves Ship Positions

Armada Pride

Last reported at 2018-Jun-18 14:16 UTC. Time now 2018-Jun-18 19:05 UTC.
Position N 37°27' E 025°56'.

Length 140 m; draft 4.1 m.

Type: Ship (hazmat cat A). MMSI: 249092000.

Date/timePositionNaut miles runAvg speedWind from/ knotsBaromVisibWave heightAir tempDewpointWater temp
2018-Jun-18 14:16N 37°27' E 025°56'2 9.1
2018-Jun-18 14:00N 37°29' E 025°55'5 9.0
2018-Jun-18 13:29N 37°34' E 025°53'310 6.5
2018-Jun-16 13:50N 41°43' E 029°53'3 8.7
2018-Jun-16 13:30N 41°44' E 029°57'8 8.7
2018-Jun-16 12:36N 41°49' E 030°05'1 8.8
2018-Jun-16 12:30N 41°49' E 030°06'4 8.8
2018-Jun-16 12:00N 41°52' E 030°11'5 8.9
2018-Jun-16 11:27N 41°54' E 030°17'89 9.0
2018-Jun-16 01:34N 42°43' E 031°57'0 8.7
2018-Jun-16 01:30N 42°43' E 031°58'7 8.6
2018-Jun-16 00:43N 42°47' E 032°06'3 8.8
2018-Jun-16 00:20N 42°49' E 032°10'3 8.7
2018-Jun-16 00:00N 42°50' E 032°13'4 8.7
2018-Jun-15 23:30N 42°53' E 032°18'122 8.7
2018-Jun-15 09:30N 43°59' E 034°39'7 8.6
2018-Jun-15 08:40N 44°03' E 034°47'68 9.1
2018-Jun-15 01:11N 44°40' E 036°07'2 9.4
2018-Jun-15 00:59N 44°41' E 036°09'22 1.6
2018-Jun-14 11:02N 44°58' E 036°30'0 8.9
2018-Jun-14 11:00N 44°58' E 036°30'4 8.6
2018-Jun-14 10:30N 45°03' E 036°30'4 8.8
2018-Jun-14 10:00N 45°07' E 036°29'4 8.4
2018-Jun-14 09:30N 45°11' E 036°28'4 6.9
2018-Jun-14 08:58N 45°15' E 036°28'3 5.6
2018-Jun-14 08:30N 45°17' E 036°29'4 7.9
2018-Jun-14 07:59N 45°20' E 036°34'4 8.9
2018-Jun-14 07:30N 45°21' E 036°39'4 8.1
2018-Jun-14 07:00N 45°25' E 036°41'2 4.5
2018-Jun-14 06:30N 45°27' E 036°40'2 2.9
2018-Jun-14 05:55N 45°29' E 036°38'0 0.0
2018-Jun-14 05:30N 45°29' E 036°38'0 0.0
2018-Jun-14 04:58N 45°29' E 036°38'0 0.0
2018-Jun-14 04:29N 45°29' E 036°38'0 0.0
2018-Jun-14 03:56N 45°29' E 036°38'0 0.0
2018-Jun-14 03:28N 45°29' E 036°38'0 0.0
2018-Jun-14 02:53N 45°29' E 036°38'0 0.3
2018-Jun-14 02:30N 45°29' E 036°38'  
2018-Jun-09 22:29N 45°28' E 036°42'4 8.9
2018-Jun-09 22:00N 45°24' E 036°41'4 8.0
2018-Jun-09 21:30N 45°21' E 036°38'5 9.6
2018-Jun-09 21:00N 45°19' E 036°31'4 7.5
2018-Jun-09 20:30N 45°16' E 036°28'3 6.5
2018-Jun-09 19:58N 45°12' E 036°30'1 0.2
2018-Jun-09 16:40N 45°12' E 036°30'1 3.9
2018-Jun-09 16:26N 45°11' E 036°30'5 8.8
2018-Jun-09 15:53N 45°06' E 036°30'  

Dump ship's entire track history